Time;durP1;ratioP1;P1;durP2;ratioP2;P2;SDS_P1;SDS_P2;PMS_P1;PMS_P2;Temp;Humidity;BMP_temperature;BMP_pressure;BME280_temperature;BME280_humidity;BME280_pressure;Samples;Min_cycle;Max_cycle;Signal;HPM_P1;HPM_P2
2022/04/13 00:00:40;;;;;;;18.42;6.78;;;;;;;9.15;56.84;96037.81;5046529;28;20052;-73
2022/04/13 00:03:06;;;;;;;19.98;6.80;;;;;;;9.13;55.77;96040.03;5046023;28;20056;-73
2022/04/13 00:05:33;;;;;;;21.42;7.07;;;;;;;9.11;56.37;96037.63;5047023;28;20041;-74
2022/04/13 00:08:00;;;;;;;16.70;6.68;;;;;;;9.07;57.21;96033.94;5046123;28;20056;-72
2022/04/13 00:10:28;;;;;;;13.65;5.85;;;;;;;9.01;58.10;96032.50;5045950;28;20106;-74
2022/04/13 00:12:55;;;;;;;19.30;6.90;;;;;;;8.96;58.43;96029.94;5046263;28;20053;-73
2022/04/13 00:15:21;;;;;;;22.60;7.85;;;;;;;8.95;58.25;96033.75;5045713;28;20052;-74
2022/04/13 00:17:48;;;;;;;18.20;7.10;;;;;;;8.91;58.22;96038.22;5045628;28;20452;-73
2022/04/13 00:20:14;;;;;;;13.55;6.30;;;;;;;8.88;58.49;96033.44;5045183;28;20809;-73
2022/04/13 00:22:40;;;;;;;15.63;6.28;;;;;;;8.87;57.94;96037.25;5046750;28;20064;-73
2022/04/13 00:25:08;;;;;;;17.88;6.68;;;;;;;8.86;58.49;96031.00;5027902;28;20057;-73
2022/04/13 00:27:36;;;;;;;18.17;7.28;;;;;;;8.83;59.04;96033.56;5026435;28;20045;-74
2022/04/13 00:30:03;;;;;;;12.85;6.25;;;;;;;8.82;59.41;96031.94;5024930;28;20053;-73
2022/04/13 00:32:30;;;;;;;17.10;7.30;;;;;;;8.76;58.91;96035.94;5026375;28;20647;-73
2022/04/13 00:34:57;;;;;;;13.82;6.00;;;;;;;8.75;59.11;96028.91;5025720;28;20055;-73
2022/04/13 00:37:23;;;;;;;26.45;7.80;;;;;;;8.74;58.76;96033.53;5024970;28;20065;-73
2022/04/13 00:39:50;;;;;;;25.00;7.63;;;;;;;8.73;59.25;96036.56;5025534;28;20046;-73
2022/04/13 00:42:17;;;;;;;19.85;7.38;;;;;;;8.69;58.78;96027.44;5024653;28;20060;-73
2022/04/13 00:44:45;;;;;;;19.42;6.43;;;;;;;8.66;58.97;96033.50;5026067;28;20398;-74
2022/04/13 00:47:13;;;;;;;32.33;8.00;;;;;;;8.68;59.32;96029.38;5024520;28;20050;-73
2022/04/13 00:49:39;;;;;;;18.38;7.15;;;;;;;8.66;59.24;96028.84;5026120;28;20053;-73
2022/04/13 00:52:07;;;;;;;21.20;7.78;;;;;;;8.62;58.61;96028.72;5024832;28;20055;-73
2022/04/13 00:54:35;;;;;;;30.13;8.50;;;;;;;8.59;58.85;96029.31;5025835;28;20060;-73
2022/04/13 00:57:09;;;;;;;15.45;6.53;;;;;;;8.57;58.95;96025.34;5024529;28;20061;-73
2022/04/13 00:59:38;;;;;;;28.35;8.80;;;;;;;8.49;58.68;96016.03;5025239;28;20120;-73
2022/04/13 01:02:07;;;;;;;18.90;7.55;;;;;;;8.48;58.89;96024.50;5025103;28;20053;-73
2022/04/13 01:04:35;;;;;;;20.10;7.72;;;;;;;8.48;59.81;96024.50;5025268;28;20049;-73
2022/04/13 01:07:03;;;;;;;17.48;6.93;;;;;;;8.48;59.76;96019.84;5025526;28;20049;-73
2022/04/13 01:09:31;;;;;;;18.83;7.80;;;;;;;8.50;59.20;96020.34;5024505;28;20519;-73
2022/04/13 01:11:57;;;;;;;17.35;7.03;;;;;;;8.51;59.33;96029.28;5025571;28;20053;-73
2022/04/13 01:14:24;;;;;;;17.17;7.35;;;;;;;8.52;59.20;96020.84;5024007;28;20411;-73
2022/04/13 01:16:50;;;;;;;15.45;6.82;;;;;;;8.51;59.32;96026.56;5025076;28;20060;-73
2022/04/13 01:19:18;;;;;;;17.58;7.70;;;;;;;8.51;59.46;96024.66;5024387;28;20053;-72
2022/04/13 01:21:47;;;;;;;21.38;7.95;;;;;;;8.49;59.75;96032.31;5024923;28;20051;-73
2022/04/13 01:24:17;;;;;;;22.58;8.18;;;;;;;8.50;59.57;96033.91;5024271;28;20162;-73
2022/04/13 01:26:44;;;;;;;17.88;7.45;;;;;;;8.47;60.08;96026.41;5024218;28;20704;-73
2022/04/13 01:29:10;;;;;;;22.02;7.78;;;;;;;8.45;59.71;96042.19;5024482;28;20068;-73
2022/04/13 01:31:37;;;;;;;17.38;6.70;;;;;;;8.39;59.83;96038.00;5024998;28;20076;-73
2022/04/13 01:34:04;;;;;;;20.92;7.45;;;;;;;8.33;60.51;96039.22;5023095;28;20499;-72
2022/04/13 01:36:32;;;;;;;15.23;6.63;;;;;;;8.27;60.88;96041.25;5024164;28;20487;-73
2022/04/13 01:38:59;;;;;;;21.42;8.18;;;;;;;8.25;60.76;96043.50;5025173;28;20053;-73
2022/04/13 01:41:27;;;;;;;26.58;8.27;;;;;;;8.24;60.69;96038.34;5023523;28;20594;-73
2022/04/13 01:43:53;;;;;;;21.15;8.05;;;;;;;8.22;60.54;96048.72;5024743;28;20464;-73
2022/04/13 01:46:20;;;;;;;23.67;8.23;;;;;;;8.19;60.55;96047.41;5023720;28;20053;-73
2022/04/13 01:48:46;;;;;;;23.67;8.48;;;;;;;8.16;60.38;96049.97;5024435;28;20515;-72
2022/04/13 01:51:14;;;;;;;18.95;7.20;;;;;;;8.11;61.64;96048.19;5024321;28;20057;-73
2022/04/13 01:53:41;;;;;;;22.20;8.45;;;;;;;8.11;62.42;96054.41;5023947;28;20072;-73
2022/04/13 01:56:07;;;;;;;17.40;7.93;;;;;;;8.07;61.17;96053.41;5024695;28;20045;-73
2022/04/13 01:58:35;;;;;;;18.65;7.90;;;;;;;8.05;61.28;96055.66;5023783;28;20045;-73
2022/04/13 02:01:01;;;;;;;20.30;7.68;;;;;;;8.03;61.98;96055.13;5027626;28;20152;-72
2022/04/13 02:03:28;;;;;;;20.38;7.90;;;;;;;8.03;62.13;96068.69;5027967;28;20045;-72
2022/04/13 02:05:55;;;;;;;22.58;8.63;;;;;;;8.00;61.43;96063.91;5028454;28;20087;-72
2022/04/13 02:08:22;;;;;;;25.63;8.07;;;;;;;7.97;61.47;96059.09;5027704;28;20199;-73
2022/04/13 02:10:49;;;;;;;25.33;8.68;;;;;;;7.94;61.40;96059.72;5027827;28;20140;-72
2022/04/13 02:13:15;;;;;;;23.83;8.00;;;;;;;7.89;61.70;96062.56;5027814;28;20053;-73
2022/04/13 02:15:43;;;;;;;28.13;8.63;;;;;;;7.85;62.19;96064.28;5027570;28;20574;-73
2022/04/13 02:18:10;;;;;;;21.13;8.00;;;;;;;7.84;62.23;96062.69;5027725;28;20049;-73
2022/04/13 02:20:36;;;;;;;16.20;7.30;;;;;;;7.83;62.17;96064.59;5027646;28;20760;-72
2022/04/13 02:23:03;;;;;;;22.58;8.48;;;;;;;7.82;61.82;96056.75;5028112;28;20057;-73
2022/04/13 02:25:29;;;;;;;18.42;7.80;;;;;;;7.82;62.80;96056.75;5027225;28;20045;-72
2022/04/13 02:28:02;;;;;;;28.08;8.25;;;;;;;7.76;63.44;96052.56;5028169;28;20057;-72
2022/04/13 02:30:28;;;;;;;24.95;8.30;;;;;;;7.74;62.96;96054.78;5027467;28;20041;-75
2022/04/13 02:32:56;;;;;;;36.25;9.13;;;;;;;7.73;62.50;96053.97;5027665;28;20049;-72
2022/04/13 02:35:23;;;;;;;19.00;7.30;;;;;;;7.72;63.25;96056.97;5028238;28;20049;-72
2022/04/13 02:37:49;;;;;;;24.65;8.60;;;;;;;7.72;63.35;96054.28;5027786;28;20064;-73
2022/04/13 02:40:16;;;;;;;25.75;8.40;;;;;;;7.69;63.12;96046.78;5028020;28;20053;-73
2022/04/13 02:42:43;;;;;;;20.38;8.35;;;;;;;7.66;63.86;96047.38;5028449;28;20087;-72
2022/04/13 02:45:10;;;;;;;20.60;7.47;;;;;;;7.66;63.39;96050.06;5028414;28;20045;-72
2022/04/13 02:47:37;;;;;;;23.08;8.88;;;;;;;7.63;63.61;96045.28;5027588;28;20515;-72
2022/04/13 02:50:06;;;;;;;27.17;9.30;;;;;;;7.62;64.19;96049.09;5027838;28;20053;-73
2022/04/13 02:52:33;;;;;;;28.02;9.45;;;;;;;7.62;64.20;96046.38;5028034;28;20607;-73
2022/04/13 02:55:00;;;;;;;28.23;9.10;;;;;;;7.58;64.55;96041.59;5028199;28;20041;-73
2022/04/13 02:57:27;;;;;;;22.70;8.63;;;;;;;7.55;64.02;96042.19;5027859;28;20416;-73
2022/04/13 02:59:53;;;;;;;30.13;9.50;;;;;;;7.51;64.80;96041.19;5027510;28;20045;-73
2022/04/13 03:02:20;;;;;;;27.25;8.27;;;;;;;7.46;64.51;96035.88;5027995;28;20045;-73
2022/04/13 03:04:48;;;;;;;23.75;9.23;;;;;;;7.46;64.42;96032.38;5024882;28;20045;-73
2022/04/13 03:07:17;;;;;;;24.60;8.57;;;;;;;7.41;65.05;96033.28;5008221;28;20427;-73
2022/04/13 03:09:44;;;;;;;21.88;8.02;;;;;;;7.39;64.46;96032.81;5007556;28;20053;-73
2022/04/13 03:12:11;;;;;;;27.08;9.43;;;;;;;7.39;64.28;96032.81;5006298;28;20642;-73
2022/04/13 03:14:39;;;;;;;25.15;8.65;;;;;;;7.39;64.86;96038.22;5007888;28;20057;-73
2022/04/13 03:17:06;;;;;;;28.88;10.07;;;;;;;7.37;64.91;96032.31;5018046;28;20057;-73
2022/04/13 03:19:32;;;;;;;32.63;9.65;;;;;;;7.33;64.84;96040.25;5027644;28;20504;-73
2022/04/13 03:21:59;;;;;;;30.17;9.80;;;;;;;7.35;65.26;96047.25;5027081;28;20076;-73
2022/04/13 03:24:27;;;;;;;21.13;8.23;;;;;;;7.33;65.28;96042.16;5027514;28;20096;-73
2022/04/13 03:26:53;;;;;;;23.10;8.55;;;;;;;7.30;65.07;96046.25;5026801;28;20111;-73
2022/04/13 03:29:20;;;;;;;23.88;8.68;;;;;;;7.29;65.73;96043.84;5027309;28;20049;-73
2022/04/13 03:31:47;;;;;;;25.25;9.13;;;;;;;7.28;65.53;96048.47;5026719;28;20065;-73
2022/04/13 03:34:13;;;;;;;22.65;7.97;;;;;;;7.27;65.22;96040.66;5027489;28;20053;-73
2022/04/13 03:36:40;;;;;;;24.10;8.80;;;;;;;7.23;65.87;96048.59;5026350;28;20053;-73
2022/04/13 03:39:06;;;;;;;25.23;9.07;;;;;;;7.19;65.79;96044.88;5027178;28;20084;-73
2022/04/13 03:41:35;;;;;;;25.77;8.82;;;;;;;7.18;66.47;96054.09;5026903;28;20045;-73
2022/04/13 03:44:01;;;;;;;29.40;10.13;;;;;;;7.17;65.75;96051.72;5025292;28;20188;-73
2022/04/13 03:46:28;;;;;;;27.33;8.40;;;;;;;7.16;65.57;96050.13;5027239;28;20052;-73
2022/04/13 03:48:54;;;;;;;25.55;8.00;;;;;;;7.13;65.44;96053.41;5042310;28;20313;-73
2022/04/13 03:51:21;;;;;;;29.65;8.27;;;;;;;7.10;66.50;96056.72;5046711;28;20052;-73
2022/04/13 03:53:47;;;;;;;23.88;8.05;;;;;;;7.09;66.46;96063.25;5046625;28;20056;-73
2022/04/13 03:56:14;;;;;;;20.92;7.80;;;;;;;7.05;66.28;96061.16;5046845;28;20053;-73
2022/04/13 03:58:42;;;;;;;22.80;9.00;;;;;;;7.05;66.20;96060.34;5046182;28;20077;-73
2022/04/13 04:01:08;;;;;;;27.58;8.68;;;;;;;7.03;65.62;96063.34;5046423;28;20060;-73
2022/04/13 04:03:36;;;;;;;24.13;8.23;;;;;;;6.96;65.69;96057.53;5046589;28;20056;-73
2022/04/13 04:06:03;;;;;;;26.00;8.82;;;;;;;6.90;65.60;96064.16;5045932;28;20156;-73
2022/04/13 04:08:30;;;;;;;33.67;8.65;;;;;;;6.87;65.80;96070.19;5046657;28;20048;-75
2022/04/13 04:10:56;;;;;;;28.90;9.02;;;;;;;6.84;65.90;96073.50;5046119;28;20511;-73
2022/04/13 04:13:23;;;;;;;22.60;8.45;;;;;;;6.82;65.87;96077.59;5046596;28;20057;-75
2022/04/13 04:15:51;;;;;;;28.70;8.65;;;;;;;6.79;65.98;96073.59;5029338;28;20064;-73
2022/04/13 04:18:17;;;;;;;32.17;8.95;;;;;;;6.76;66.25;96077.69;5026534;28;20499;-73
2022/04/13 04:20:44;;;;;;;30.63;8.63;;;;;;;6.76;66.41;96082.31;5025465;28;20834;-73
2022/04/13 04:23:10;;;;;;;29.90;9.48;;;;;;;6.74;66.50;96076.41;5025628;28;20072;-73
2022/04/13 04:25:37;;;;;;;27.33;8.90;;;;;;;6.73;66.89;96088.31;5025693;28;20604;-73
2022/04/13 04:28:06;;;;;;;35.83;10.32;;;;;;;6.73;66.95;96085.59;5025707;28;20077;-73
2022/04/13 04:30:33;;;;;;;27.42;8.90;;;;;;;6.73;66.92;96089.13;5025681;28;20053;-73
2022/04/13 04:33:00;;;;;;;38.58;10.60;;;;;;;6.73;67.50;96085.59;5025848;28;20060;-73
2022/04/13 04:35:27;;;;;;;37.10;9.60;;;;;;;6.72;67.20;96090.22;5025986;28;20045;-73
2022/04/13 04:37:54;;;;;;;31.20;9.70;;;;;;;6.73;66.93;96091.00;5025721;28;20502;-72
2022/04/13 04:40:20;;;;;;;30.73;9.90;;;;;;;6.72;66.88;96089.41;5025921;28;20056;-73
2022/04/13 04:42:48;;;;;;;37.03;8.63;;;;;;;6.72;67.08;96089.41;5025493;28;20046;-73
2022/04/13 04:45:16;;;;;;;29.88;10.25;;;;;;;6.71;67.23;96087.81;5026277;28;20045;-73
2022/04/13 04:47:43;;;;;;;34.47;8.85;;;;;;;6.70;67.35;96086.22;5025318;28;20057;-73
2022/04/13 04:50:11;;;;;;;32.85;10.73;;;;;;;6.69;67.27;96092.72;5025245;28;20049;-74
2022/04/13 04:52:41;;;;;;;30.80;9.60;;;;;;;6.68;67.36;96097.34;5025411;28;20534;-74
2022/04/13 04:55:09;;;;;;;33.47;9.77;;;;;;;6.68;67.18;96099.22;5025228;28;20084;-74
2022/04/13 04:57:35;;;;;;;31.83;8.20;;;;;;;6.69;67.37;96106.25;5025800;28;20053;-74
2022/04/13 05:00:03;;;;;;;32.72;9.65;;;;;;;6.70;66.92;96095.13;5024379;28;20060;-74
2022/04/13 05:02:29;;;;;;;25.95;8.40;;;;;;;6.74;66.96;96103.47;5026162;28;20072;-74
2022/04/13 05:04:56;;;;;;;34.42;8.45;;;;;;;6.74;67.30;96098.84;5025140;28;20054;-73
2022/04/13 05:07:24;;;;;;;32.85;8.88;;;;;;;6.77;67.75;96105.56;5025873;28;20137;-74
2022/04/13 05:09:51;;;;;;;37.10;10.02;;;;;;;6.79;67.66;96100.66;5025695;28;20045;-73
2022/04/13 05:12:17;;;;;;;28.25;8.95;;;;;;;6.81;67.62;96103.84;5025085;28;20052;-74
2022/04/13 05:14:44;;;;;;;27.40;8.48;;;;;;;6.88;67.42;96104.25;5025662;28;20053;-75
2022/04/13 05:17:10;;;;;;;31.30;9.60;;;;;;;6.93;67.50;96111.47;5042123;28;20049;-74
2022/04/13 05:19:37;;;;;;;37.72;9.05;;;;;;;6.99;67.13;96113.78;5044832;28;20045;-74
2022/04/13 05:22:04;;;;;;;30.85;9.80;;;;;;;7.03;67.37;96114.78;5043276;28;20049;-74
2022/04/13 05:24:32;;;;;;;31.05;8.55;;;;;;;7.02;67.04;96110.47;5045208;28;20179;-74
2022/04/13 05:26:58;;;;;;;36.03;9.70;;;;;;;7.06;66.94;96116.91;5044405;28;20053;-74
2022/04/13 05:29:25;;;;;;;30.10;9.00;;;;;;;7.09;66.57;96114.69;5045187;28;20052;-75
2022/04/13 05:31:51;;;;;;;28.23;8.95;;;;;;;7.16;66.82;96112.41;5044708;28;20056;-74
2022/04/13 05:34:18;;;;;;;30.73;9.90;;;;;;;7.20;66.40;96116.88;5044324;28;20655;-74
2022/04/13 05:36:44;;;;;;;38.80;11.45;;;;;;;7.21;66.71;96117.72;5045000;28;20051;-76
2022/04/13 05:39:11;;;;;;;30.38;10.65;;;;;;;7.18;67.42;96118.31;5044445;28;20056;-74
2022/04/13 05:41:39;;;;;;;23.33;8.65;;;;;;;7.25;67.79;96118.69;5044788;28;20055;-75
2022/04/13 05:44:06;;;;;;;27.52;9.65;;;;;;;7.34;68.26;96119.59;5042026;28;20056;-74
2022/04/13 05:46:33;;;;;;;24.23;9.07;;;;;;;7.42;68.46;96118.91;5037180;28;20741;-74
2022/04/13 05:48:59;;;;;;;25.92;10.20;;;;;;;7.52;68.51;96118.69;5044171;28;20055;-74
2022/04/13 05:51:26;;;;;;;24.63;9.80;;;;;;;7.62;68.29;96122.25;5044868;28;20072;-74
2022/04/13 05:53:52;;;;;;;33.10;12.82;;;;;;;7.66;66.39;96123.25;5044311;28;20049;-74
2022/04/13 05:56:20;;;;;;;26.50;11.48;;;;;;;7.72;66.24;96125.53;5044936;28;20049;-75
2022/04/13 05:58:48;;;;;;;31.50;11.90;;;;;;;7.83;66.31;96126.13;5044387;28;20059;-76
2022/04/13 06:01:14;;;;;;;33.78;13.40;;;;;;;7.93;66.25;96134.00;5044580;28;20499;-74
2022/04/13 06:03:41;;;;;;;29.73;12.63;;;;;;;8.03;65.83;96139.19;5044773;28;20443;-74
2022/04/13 06:06:07;;;;;;;29.33;12.23;;;;;;;8.15;65.14;96135.97;5044477;28;20464;-77
2022/04/13 06:08:34;;;;;;;22.65;10.02;;;;;;;8.27;64.28;96144.34;5044668;28;20051;-75
2022/04/13 06:11:00;;;;;;;26.30;10.77;;;;;;;8.38;63.99;96139.50;5044026;28;20048;-74
2022/04/13 06:13:27;;;;;;;25.58;10.80;;;;;;;8.45;63.75;96139.88;5044966;28;20052;-73
2022/04/13 06:15:54;;;;;;;28.15;9.45;;;;;;;8.56;63.42;96145.84;5034205;28;20053;-74
2022/04/13 06:18:21;;;;;;;23.25;9.77;;;;;;;8.62;62.04;96144.63;5044790;28;20045;-74
2022/04/13 06:20:47;;;;;;;21.48;9.52;;;;;;;8.69;61.71;96144.16;5044056;28;20463;-74
2022/04/13 06:23:14;;;;;;;21.80;9.43;;;;;;;8.78;61.78;96131.47;5044473;28;20412;-74
2022/04/13 06:25:40;;;;;;;20.30;9.00;;;;;;;8.91;61.78;96146.84;5044600;28;20052;-74
2022/04/13 06:28:07;;;;;;;20.65;9.38;;;;;;;9.00;61.33;96149.59;5044018;28;20053;-74
2022/04/13 06:30:33;;;;;;;21.92;10.15;;;;;;;9.08;61.20;96152.38;5044353;28;20411;-74
2022/04/13 06:33:01;;;;;;;25.50;10.45;;;;;;;9.17;60.66;96155.09;5044278;28;20053;-74
2022/04/13 06:35:28;;;;;;;18.55;8.65;;;;;;;9.25;60.88;96157.06;5044674;28;20045;-75
2022/04/13 06:37:54;;;;;;;20.95;8.85;;;;;;;9.35;60.33;96156.78;5043857;28;20057;-75
2022/04/13 06:40:21;;;;;;;21.42;9.90;;;;;;;9.45;60.13;96154.88;5044123;28;20571;-74
2022/04/13 06:42:48;;;;;;;22.80;9.77;;;;;;;9.56;60.42;96158.94;5043843;28;20515;-74
2022/04/13 06:45:16;;;;;;;24.35;10.48;;;;;;;9.63;60.50;96162.78;5032712;28;20053;-74
2022/04/13 06:47:43;;;;;;;20.50;10.23;;;;;;;9.73;59.96;96161.69;5027787;28;20057;-76
2022/04/13 06:50:12;;;;;;;24.30;10.60;;;;;;;9.85;59.83;96163.78;5027863;28;20056;-75
2022/04/13 06:52:40;;;;;;;19.88;8.90;;;;;;;9.98;59.35;96165.56;5028227;28;20061;-74
2022/04/13 06:55:09;;;;;;;20.05;9.95;;;;;;;10.07;58.98;96165.56;5027663;28;20072;-75
2022/04/13 06:57:37;;;;;;;18.17;8.82;;;;;;;10.17;58.83;96162.50;5028255;28;20125;-74
2022/04/13 07:00:05;;;;;;;16.10;8.73;;;;;;;10.26;58.86;96162.56;5026739;28;20128;-75
2022/04/13 07:02:32;;;;;;;17.70;8.60;;;;;;;10.39;59.07;96169.78;5028445;28;20049;-74
2022/04/13 07:04:58;;;;;;;15.80;8.25;;;;;;;10.53;58.97;96162.22;5027067;28;20061;-74
2022/04/13 07:07:26;;;;;;;17.95;8.38;;;;;;;10.65;59.21;96165.09;5028055;28;20049;-74
2022/04/13 07:09:53;;;;;;;22.48;8.23;;;;;;;10.82;59.32;96171.63;5027028;28;20301;-74
2022/04/13 07:12:19;;;;;;;22.42;9.02;;;;;;;10.97;58.91;96176.56;5027295;28;20543;-75
2022/04/13 07:14:45;;;;;;;14.20;7.68;;;;;;;11.10;58.22;96170.09;5027529;28;20049;-74
2022/04/13 07:17:12;;;;;;;17.10;8.43;;;;;;;11.22;57.98;96172.97;5045163;28;20052;-74
2022/04/13 07:19:39;;;;;;;15.50;8.65;;;;;;;11.37;57.61;96168.09;5047789;28;20057;-74
2022/04/13 07:22:06;;;;;;;13.73;7.88;;;;;;;11.55;57.56;96169.63;5047029;28;20053;-75
2022/04/13 07:24:34;;;;;;;22.23;8.43;;;;;;;11.74;57.19;96170.00;5047700;28;20045;-75
2022/04/13 07:27:01;;;;;;;17.88;8.82;;;;;;;11.88;57.17;96172.50;5046934;28;20131;-74
2022/04/13 07:29:27;;;;;;;18.30;7.85;;;;;;;12.17;57.42;96174.41;5047254;28;20049;-74
2022/04/13 07:31:54;;;;;;;14.60;7.97;;;;;;;12.64;55.58;96166.00;5047443;28;20080;-77
2022/04/13 07:34:20;;;;;;;34.67;9.20;;;;;;;13.14;54.53;96170.44;5047067;28;20582;-76
2022/04/13 07:36:47;;;;;;;23.23;8.32;;;;;;;13.63;53.55;96167.81;5046542;28;20052;-75
2022/04/13 07:39:13;;;;;;;58.22;12.52;;;;;;;14.21;53.00;96168.44;5046480;28;20057;-75
2022/04/13 07:41:41;;;;;;;13.35;7.10;;;;;;;14.68;50.64;96169.81;5046936;28;20045;-74
2022/04/13 07:44:08;;;;;;;12.85;7.88;;;;;;;14.99;49.55;96174.59;5043989;28;20049;-75
2022/04/13 07:46:35;;;;;;;17.63;6.85;;;;;;;15.38;48.86;96176.41;5040182;28;20350;-76
2022/04/13 07:49:05;;;;;;;12.60;7.30;;;;;;;15.68;48.44;96176.00;5046508;28;20053;-75
2022/04/13 07:51:32;;;;;;;16.52;6.90;;;;;;;16.01;48.87;96177.56;5046923;28;20037;-74
2022/04/13 07:54:00;;;;;;;18.75;8.50;;;;;;;16.25;46.62;96177.31;5046346;28;20053;-75
2022/04/13 07:56:26;;;;;;;18.05;7.75;;;;;;;16.51;46.83;96181.41;5046356;28;20049;-73
2022/04/13 07:58:54;;;;;;;15.20;6.63;;;;;;;16.86;45.21;96184.94;5045391;28;20339;-73
2022/04/13 08:01:21;;;;;;;16.90;7.60;;;;;;;17.11;44.02;96179.09;5046218;28;20048;-73
2022/04/13 08:03:47;;;;;;;22.92;7.88;;;;;;;17.35;43.93;96173.28;5046435;28;20053;-76
2022/04/13 08:06:15;;;;;;;15.63;7.75;;;;;;;17.63;43.17;96180.41;5045731;28;20049;-75
2022/04/13 08:08:41;;;;;;;13.07;7.53;;;;;;;17.84;43.05;96169.78;5046564;28;20059;-75
2022/04/13 08:11:08;;;;;;;18.55;7.80;;;;;;;17.94;42.05;96171.91;5045439;28;20056;-75
2022/04/13 08:13:34;;;;;;;18.25;6.97;;;;;;;17.99;42.00;96163.34;5046321;28;20045;-74
2022/04/13 08:16:02;;;;;;;13.35;7.55;;;;;;;18.22;43.35;96171.56;5035513;28;20045;-75
2022/04/13 08:18:29;;;;;;;16.00;7.22;;;;;;;18.23;40.87;96175.91;5046450;28;20049;-76
2022/04/13 08:20:55;;;;;;;13.15;6.75;;;;;;;18.26;41.14;96172.38;5045393;28;20409;-76
2022/04/13 08:23:22;;;;;;;13.85;7.55;;;;;;;18.56;42.34;96173.59;5045739;28;20049;-76
2022/04/13 08:25:48;;;;;;;12.32;6.90;;;;;;;18.98;41.63;96174.13;5045862;28;20053;-76
2022/04/13 08:28:15;;;;;;;11.75;7.03;;;;;;;19.28;41.60;96171.31;5045438;28;20053;-76
2022/04/13 08:30:41;;;;;;;18.75;7.05;;;;;;;19.35;39.40;96176.09;5045828;28;20087;-75
2022/04/13 08:33:09;;;;;;;16.48;7.15;;;;;;;19.41;39.05;96179.31;5045387;28;20055;-75
2022/04/13 08:35:36;;;;;;;16.63;6.78;;;;;;;19.50;38.48;96188.88;5046045;28;20111;-75
2022/04/13 08:38:02;;;;;;;13.32;7.05;;;;;;;19.67;39.65;96181.16;5044927;28;20063;-74
2022/04/13 08:40:32;;;;;;;22.17;6.90;;;;;;;19.77;37.99;96183.22;5045878;28;20512;-74
2022/04/13 08:43:05;;;;;;;11.95;6.13;;;;;;;20.08;38.91;96184.66;5045060;28;20052;-75
2022/04/13 08:45:38;;;;;;;11.95;6.50;;;;;;;20.25;36.82;96191.50;5035719;28;20041;-75
2022/04/13 08:48:11;;;;;;;15.68;6.18;;;;;;;20.49;37.89;96193.66;5044675;28;20764;-76
2022/04/13 08:50:43;;;;;;;20.30;8.00;;;;;;;20.82;37.57;96194.63;5045441;28;20112;-74
2022/04/13 08:53:12;;;;;;;18.38;6.43;;;;;;;20.93;35.69;96194.66;5045290;28;20053;-75
2022/04/13 08:55:47;;;;;;;22.95;7.93;;;;;;;20.92;36.13;96193.88;5045112;28;20052;-74
2022/04/13 08:58:23;;;;;;;16.23;6.30;;;;;;;20.89;35.25;96197.44;5045405;28;20048;-77
2022/04/13 09:00:51;;;;;;;21.77;7.28;;;;;;;20.63;35.96;96197.69;5044766;28;20051;-77
2022/04/13 09:03:24;;;;;;;22.23;7.47;;;;;;;20.51;35.23;96196.81;5044935;28;20067;-77
2022/04/13 09:05:56;;;;;;;16.13;6.90;;;;;;;20.31;36.51;96192.75;5044890;28;20482;-78
2022/04/13 09:08:24;;;;;;;24.40;8.60;;;;;;;20.30;37.43;96197.44;5044543;28;20060;-77
2022/04/13 09:10:53;;;;;;;21.45;7.68;;;;;;;20.12;37.77;96198.53;5044816;28;20300;-77
2022/04/13 09:13:21;;;;;;;21.33;8.10;;;;;;;19.94;38.46;96199.19;5044348;28;20053;-77
2022/04/13 09:15:48;;;;;;;18.33;6.85;;;;;;;19.82;38.15;96202.22;5035616;28;20087;-77
2022/04/13 09:18:15;;;;;;;20.75;7.68;;;;;;;19.74;38.54;96200.59;5044353;28;20084;-74
2022/04/13 09:20:41;;;;;;;22.10;7.85;;;;;;;19.85;38.88;96193.19;5045641;28;20044;-77
2022/04/13 09:23:10;;;;;;;16.83;6.75;;;;;;;20.11;37.78;96199.69;5044172;28;20075;-76
2022/04/13 09:25:37;;;;;;;16.73;7.07;;;;;;;20.37;38.61;96199.50;5045467;28;20056;-76
2022/04/13 09:28:05;;;;;;;19.92;7.72;;;;;;;20.72;37.19;96195.34;5044457;28;20045;-76
2022/04/13 09:30:33;;;;;;;16.40;7.22;;;;;;;20.97;36.36;96190.72;5044743;28;20045;-75
2022/04/13 09:33:01;;;;;;;20.50;7.50;;;;;;;20.95;36.33;96200.63;5044616;28;20060;-76
2022/04/13 09:35:28;;;;;;;20.15;8.10;;;;;;;21.11;36.05;96198.31;5044596;28;20047;-76
2022/04/13 09:37:55;;;;;;;21.60;6.75;;;;;;;21.24;36.30;96199.50;5045089;28;20688;-75
2022/04/13 09:40:31;;;;;;;18.58;7.15;;;;;;;21.28;35.43;96199.53;5043668;28;20053;-74
2022/04/13 09:43:06;;;;;;;17.60;6.45;;;;;;;21.38;37.33;96204.34;5044973;28;20804;-75
2022/04/13 09:45:37;;;;;;;15.35;6.68;;;;;;;21.48;36.01;96203.56;5030277;28;20634;-77
2022/04/13 09:48:08;;;;;;;16.95;6.88;;;;;;;21.49;35.44;96198.81;5024784;28;20144;-75
2022/04/13 09:50:35;;;;;;;14.48;6.43;;;;;;;21.62;36.56;96195.28;5024511;28;20045;-75
2022/04/13 09:53:05;;;;;;;16.33;7.18;;;;;;;21.63;34.62;96193.31;5024874;28;20049;-76
2022/04/13 09:55:34;;;;;;;15.52;6.25;;;;;;;21.60;36.75;96192.09;5024855;28;20475;-74
2022/04/13 09:58:08;;;;;;;15.07;6.88;;;;;;;21.92;35.91;96193.31;5024755;28;20046;-74
2022/04/13 10:00:35;;;;;;;15.90;6.95;;;;;;;21.97;35.15;96190.16;5044576;28;20041;-75
2022/04/13 10:03:10;;;;;;;16.35;6.80;;;;;;;22.07;34.61;96195.69;5043864;28;20056;-75
2022/04/13 10:05:37;;;;;;;15.45;6.60;;;;;;;22.03;36.02;96194.13;5044794;28;20048;-77
2022/04/13 10:08:05;;;;;;;16.15;6.88;;;;;;;22.07;36.53;96195.69;5043602;28;20053;-76
2022/04/13 10:10:33;;;;;;;16.73;6.68;;;;;;;22.02;35.92;96198.88;5044704;28;20057;-76
2022/04/13 10:13:00;;;;;;;18.10;6.85;;;;;;;21.93;37.94;96190.19;5044229;28;20049;-73
2022/04/13 10:15:27;;;;;;;16.77;7.28;;;;;;;21.76;37.95;96202.03;5034442;28;20065;-74
2022/04/13 10:17:58;;;;;;;14.48;6.15;;;;;;;21.61;36.55;96199.25;5044493;28;20041;-74
2022/04/13 10:20:40;;;;;;;17.75;9.02;;;;;;;21.61;36.93;96195.66;5043960;28;20098;-74
2022/04/13 10:23:08;;;;;;;14.63;6.30;;;;;;;21.65;36.09;96190.13;5048689;28;20048;-74
2022/04/13 10:25:36;;;;;;;15.32;7.13;;;;;;;21.66;36.72;96189.75;5048899;28;20571;-74
2022/04/13 10:28:03;;;;;;;15.27;6.78;;;;;;;21.55;37.50;96186.16;5046256;28;20076;-76
2022/04/13 10:30:31;;;;;;;23.25;7.55;;;;;;;21.52;37.92;96193.31;5046733;28;20082;-73
2022/04/13 10:33:00;;;;;;;19.13;7.70;;;;;;;21.32;36.78;96195.63;5048116;28;20048;-74
2022/04/13 10:35:28;;;;;;;15.18;7.05;;;;;;;21.04;37.78;96189.97;5047364;28;20091;-74
2022/04/13 10:37:55;;;;;;;17.48;7.53;;;;;;;20.95;38.05;96190.34;5048037;28;20044;-74
2022/04/13 10:40:24;;;;;;;14.75;7.03;;;;;;;20.88;38.41;96187.53;5047300;28;20812;-74
2022/04/13 10:42:53;;;;;;;18.25;7.85;;;;;;;20.89;38.90;96186.34;5047748;28;20048;-73
2022/04/13 10:45:20;;;;;;;16.35;7.28;;;;;;;20.81;38.66;96181.97;5047598;28;20045;-74
2022/04/13 10:47:53;;;;;;;16.65;6.53;;;;;;;20.79;36.75;96189.88;5047311;28;20056;-74
2022/04/13 10:50:30;;;;;;;20.73;7.63;;;;;;;20.77;38.08;96181.16;5047185;28;20049;-74
2022/04/13 10:52:58;;;;;;;16.33;6.18;;;;;;;20.78;37.65;96177.22;5047617;28;20052;-74
2022/04/13 10:55:27;;;;;;;19.63;7.25;;;;;;;20.85;37.82;96171.72;5047267;28;20044;-75
2022/04/13 10:58:00;;;;;;;17.52;5.65;;;;;;;21.16;38.76;96181.31;5047738;28;20080;-74
2022/04/13 11:00:27;;;;;;;17.40;7.40;;;;;;;21.43;37.17;96167.94;5046165;28;20055;-75
2022/04/13 11:02:55;;;;;;;20.83;7.75;;;;;;;21.56;36.24;96171.94;5047822;28;20051;-74
2022/04/13 11:05:25;;;;;;;17.92;7.32;;;;;;;21.71;38.65;96169.16;5046331;28;20052;-75
2022/04/13 11:07:58;;;;;;;14.88;6.85;;;;;;;21.88;37.13;96168.41;5048022;28;20115;-75
2022/04/13 11:10:25;;;;;;;11.60;5.55;;;;;;;22.06;38.50;96160.84;5046553;28;20052;-75
2022/04/13 11:12:52;;;;;;;18.48;7.35;;;;;;;22.10;36.03;96155.31;5047711;28;20044;-74
2022/04/13 11:15:37;;;;;;;17.50;7.55;;;;;;;21.70;36.38;96159.28;5046514;28;20088;-75
2022/04/13 11:18:09;;;;;;;18.27;7.80;;;;;;;21.73;37.27;96161.25;5046419;28;20053;-75
2022/04/13 11:20:36;;;;;;;19.40;6.82;;;;;;;21.86;37.94;96156.91;5047008;28;20472;-74
2022/04/13 11:23:15;;;;;;;17.33;6.38;;;;;;;22.01;37.76;96164.03;5046007;28;20049;-75
2022/04/13 11:25:51;;;;;;;16.05;6.50;;;;;;;21.99;36.88;96160.06;5041830;28;20053;-75
2022/04/13 11:28:25;;;;;;;13.93;6.68;;;;;;;22.00;36.24;96156.91;5025983;28;20063;-74
2022/04/13 11:31:05;;;;;;;16.83;7.03;;;;;;;21.95;35.83;96160.06;5027151;28;20050;-75